hero-logo

Top 15 Knowers of DISH Dish Network Corp-A - 2017-07-25

Rank Fund Result (K)
1 Guggenheim Capital Llc $2,474
2 Thorntree Capital Partners Lp $1,335
3 Maplelane Capital Llc $1,084
4 Pagoda Asset Management Lp $910
5 Picton Mahoney Asset Management $772
6 Bridgeway Capital Management Inc $683
7 Graticule Asia Macro Advisors Llc $628
8 Ahl Partners Llp $624
9 Mckinley Capital Management Llc Delaware $607
10 Gotham Asset Management Llc $590
11 Highbridge Capital Management Llc $417
12 Folger Hill Asset Management Lp $278
13 Knighthead Capital Management Llc $278
14 Northwestern Mutual Investment Management Company Llc $255
15 Cornerstone Capital Management Holdings Llc $216
Price Chart and News From Google Finance for DISH Dish Network Corp-A
Owner Date Shares Change Price Change Result (K)
Acrospire Investment Management Llc 2017-03-31 -600 $5.56 $-3
Ahl Partners Llp 2017-03-31 112,382 $5.56 $624
Alta Park Capital Lp 2017-03-31 9,500 $5.56 $52
Amalgamated Bank 2017-03-31 -1,561 $5.56 $-8
Aperio Group Llc 2017-03-31 2,456 $5.56 $13
Archford Capital Strategies Llc 2017-03-31 0 $5.56 $0
Arrowpoint Asset Management Llc 2017-03-31 -25,000 $5.56 $-139
A R T Advisors Llc 2017-03-31 35,600 $5.56 $197
Assetmark Inc 2017-03-31 22,466 $5.56 $124
Balter Liquid Alternatives Llc 2017-03-31 5,033 $5.56 $27
Bluefin Trading Llc 2017-03-31 -299,421 $5.56 $-1,664
Bridgeway Capital Management Inc 2017-03-31 123,000 $5.56 $683
Brinker Capital Inc 2017-03-31 -9,431 $5.56 $-52
California State Teachers Retirement System 2017-03-31 -19,700 $5.56 $-109
Capital Guardian Trust Co 2017-03-31 0 $5.56 $0
Capstone Investment Advisors Llc 2017-03-31 -7,500 $5.56 $-41
Carlson Capital L P 2017-03-31 -85,465 $5.56 $-475
Cetera Advisor Networks Llc 2017-03-31 5,271 $5.56 $29
Cornerstone Capital Management Holdings Llc 2017-03-31 38,922 $5.56 $216
D A Davidson Co 2017-03-31 -2,287 $5.56 $-12
Eagle Capital Management Llc 2017-03-31 -1,736,106 $5.56 $-9,652
Earnest Partners Llc 2017-03-31 -104 $5.56 $0
Ellington Management Group Llc 2017-03-31 6,916 $5.56 $38
Envestnet Asset Management Inc 2017-03-31 -1,656 $5.56 $-9
First Republic Investment Management Inc 2017-03-31 -500 $5.56 $-2
Flow Traders U S Llc 2017-03-31 -11,000 $5.56 $-61
Folger Hill Asset Management Lp 2017-03-31 50,000 $5.56 $278
Frontfour Capital Group Llc 2017-03-31 26,866 $5.56 $149
Glen Harbor Capital Management Llc 2017-03-31 2,686 $5.56 $14
Gotham Asset Management Llc 2017-03-31 106,145 $5.56 $590
Graticule Asia Macro Advisors Llc 2017-03-31 113,100 $5.56 $628
Group One Trading L P 2017-03-31 -147,097 $5.56 $-817
Gsa Capital Partners Llp 2017-03-31 -12,572 $5.56 $-69
Guggenheim Capital Llc 2017-03-31 444,979 $5.56 $2,474
Highbridge Capital Management Llc 2017-03-31 75,000 $5.56 $417
Horizon Kinetics Llc 2017-03-31 -52,348 $5.56 $-291
Hutchin Hill Capital Lp 2017-03-31 18,600 $5.56 $103
Ifp Advisors Inc 2017-03-31 20 $5.56 $0
Iht Wealth Management Llc 2017-03-31 374 $5.56 $2
Invictus Rg 2017-03-31 2,517 $5.56 $13
Jafra Capital Management Lp 2017-03-31 5,000 $5.56 $27
Jane Street Group Llc 2017-03-31 13,128 $5.56 $72
Jericho Capital Asset Management L P 2017-03-31 -909,417 $5.56 $-5,056
Kenmare Capital Partners L L C 2017-03-31 -187,264 $5.56 $-1,041
Kentucky Retirement Systems 2017-03-31 14,548 $5.56 $80
Kentucky Retirement Systems Insurance Trust Fund 2017-03-31 6,136 $5.56 $34
Knighthead Capital Management Llc 2017-03-31 50,000 $5.56 $278
Krilogy Financial Llc 2017-03-31 0 $5.56 $0
Ladenburg Thalmann Financial Services Inc 2017-03-31 5,479 $5.56 $30
Lorber David A 2017-03-31 423 $5.56 $2
Maplelane Capital Llc 2017-03-31 195,000 $5.56 $1,084
Mariner Wealth Advisors Llc 2017-03-31 -4,506 $5.56 $-25
Mason Street Advisors Llc 2017-03-31 31,358 $5.56 $174
Mckinley Capital Management Llc Delaware 2017-03-31 109,335 $5.56 $607
Meadow Creek Investment Management Llc 2017-03-31 2,212 $5.56 $12
Miles Capital Inc 2017-03-31 4,613 $5.56 $25
Northwestern Mutual Investment Management Company Llc 2017-03-31 45,869 $5.56 $255
Northwestern Mutual Wealth Management Co 2017-03-31 1,127 $5.56 $6
Numina Capital Management Llc 2017-03-31 -38,436 $5.56 $-213
Owl Creek Asset Management L P 2017-03-31 -481,962 $5.56 $-2,679
Pagoda Asset Management Lp 2017-03-31 163,777 $5.56 $910
Paloma Partners Management Co 2017-03-31 6,260 $5.56 $34
Partner Fund Management L P 2017-03-31 -722,103 $5.56 $-4,014
Partner Investment Management L P 2017-03-31 -15,256 $5.56 $-84
Perella Weinberg Partners Capital Management Lp 2017-03-31 35,981 $5.56 $200
Picton Mahoney Asset Management 2017-03-31 138,900 $5.56 $772
Piedmont Investment Advisors Llc 2017-03-31 1,043 $5.56 $5
Pineview Asset Management Lp 2017-03-31 -137,760 $5.56 $-765
Proficio Capital Partners Llc 2017-03-31 21 $5.56 $0
Public Employees Retirement System Of Ohio 2017-03-31 -25,450 $5.56 $-141
Qcm Cayman Ltd 2017-03-31 3,323 $5.56 $18
Raymond James Associates 2017-03-31 1,615 $5.56 $8
Riverhead Capital Management Llc 2017-03-31 900 $5.56 $5
Round Hill Asset Management 2017-03-31 -165 $5.56 $0
Roystone Capital Management Lp 2017-03-31 -66,000 $5.56 $-366
Schonfeld Strategic Advisors Llc 2017-03-31 12,428 $5.56 $69
Silvercrest Asset Management Group Llc 2017-03-31 200 $5.56 $1
Silver Rock Financial Lp 2017-03-31 22,000 $5.56 $122
Southport Management L L C 2017-03-31 2,500 $5.56 $13
Squarepoint Ops Llc 2017-03-31 12,314 $5.56 $68
Stifel Financial Corp 2017-03-31 9,488 $5.56 $52
Tcs Capital Management Llc 2017-03-31 -43,500 $5.56 $-241
Thorntree Capital Partners Lp 2017-03-31 240,239 $5.56 $1,335
Tyers Asset Management Llc 2017-03-31 1,264 $5.56 $7
Veritable L P 2017-03-31 105 $5.56 $0
Verition Fund Management Llc 2017-03-31 3,248 $5.56 $18
Voloridge Investment Management Llc 2017-03-31 -71,122 $5.56 $-395
Walleye Trading Llc 2017-03-31 -202,898 $5.56 $-1,128
Wayne Hummer Investments L L C 2017-03-31 4,610 $5.56 $25
Zimmer Partners Lp 2017-03-31 -477,557 $5.56 $-2,655